Time;durP1;ratioP1;P1;durP2;ratioP2;P2;SDS_P1;SDS_P2;PMS_P1;PMS_P2;Temp;Humidity;BMP_temperature;BMP_pressure;BME280_temperature;BME280_humidity;BME280_pressure;Samples;Min_cycle;Max_cycle;Signal;HPM_P1;HPM_P2
2022/05/30 00:00:33;;;;;;;14.52;3.40;;;9.80;99.90;;;;;;5069341;28;20021;-82
2022/05/30 00:02:59;;;;;;;11.93;3.33;;;9.80;99.90;;;;;;5076619;28;20024;-82
2022/05/30 00:05:27;;;;;;;12.05;3.30;;;9.80;99.90;;;;;;5083448;28;20090;-85
2022/05/30 00:07:53;;;;;;;10.00;3.25;;;9.80;99.90;;;;;;5092451;28;20024;-85
2022/05/30 00:10:20;;;;;;;14.35;3.53;;;9.80;99.90;;;;;;5090008;28;20028;-82
2022/05/30 00:12:46;;;;;;;8.10;3.10;;;9.80;99.90;;;;;;5090823;28;20020;-79
2022/05/30 00:15:15;;;;;;;14.50;3.00;;;9.80;99.90;;;;;;5088981;28;20457;-79
2022/05/30 00:17:40;;;;;;;14.30;3.17;;;9.80;99.90;;;;;;5088640;28;20024;-79
2022/05/30 00:20:08;;;;;;;10.98;2.95;;;9.80;99.90;;;;;;5089767;28;20047;-79
2022/05/30 00:22:37;;;;;;;13.82;3.33;;;9.70;99.90;;;;;;5088872;28;20024;-79
2022/05/30 00:25:03;;;;;;;9.93;2.67;;;9.80;99.90;;;;;;5088844;28;20016;-82
2022/05/30 00:27:30;;;;;;;12.90;2.78;;;9.80;99.90;;;;;;5090120;28;20020;-79
2022/05/30 00:29:58;;;;;;;17.52;3.42;;;9.80;99.90;;;;;;5088065;28;20032;-79
2022/05/30 00:32:24;;;;;;;14.10;3.80;;;9.70;99.90;;;;;;5084143;28;20331;-79
2022/05/30 00:34:50;;;;;;;14.57;3.53;;;9.70;99.90;;;;;;5081335;28;20031;-80
2022/05/30 00:37:16;;;;;;;10.25;3.13;;;9.70;99.90;;;;;;5088575;28;20040;-79
2022/05/30 00:39:48;;;;;;;14.05;3.15;;;9.80;99.90;;;;;;5089913;28;20016;-82
2022/05/30 00:42:16;;;;;;;12.75;2.80;;;9.80;99.90;;;;;;5089012;28;20023;-81
2022/05/30 00:44:48;;;;;;;8.65;3.08;;;9.80;99.90;;;;;;5089069;28;20016;-81
2022/05/30 00:47:14;;;;;;;9.07;3.03;;;9.80;99.90;;;;;;5088773;28;20074;-81
2022/05/30 00:49:44;;;;;;;11.07;2.70;;;9.80;99.90;;;;;;5090132;28;20032;-81
2022/05/30 00:52:17;;;;;;;13.32;3.47;;;9.80;99.90;;;;;;5089470;28;20028;-81
2022/05/30 00:54:58;;;;;;;8.20;2.40;;;9.80;99.90;;;;;;5088590;28;20047;-81
2022/05/30 00:57:27;;;;;;;18.88;3.03;;;9.80;99.90;;;;;;5089762;28;20016;-81
2022/05/30 00:59:59;;;;;;;19.85;3.63;;;9.70;99.90;;;;;;5087553;28;20031;-81
2022/05/30 01:02:32;;;;;;;11.98;2.72;;;9.70;99.90;;;;;;5080433;28;20024;-81
2022/05/30 01:07:45;;;;;;;13.32;3.42;;;9.70;99.90;;;;;;5069876;28;20135;-81
2022/05/30 01:10:16;;;;;;;12.90;3.08;;;9.70;99.90;;;;;;5067664;28;20031;-81
2022/05/30 01:12:49;;;;;;;8.52;2.33;;;9.80;99.90;;;;;;5068054;28;20077;-82
2022/05/30 01:15:22;;;;;;;10.30;2.63;;;9.80;99.90;;;;;;5069487;28;20504;-81
2022/05/30 01:17:59;;;;;;;13.40;3.13;;;9.80;99.90;;;;;;5067807;28;20033;-81
2022/05/30 01:20:55;;;;;;;18.65;2.83;;;9.70;99.90;;;;;;5069045;28;20035;-81
2022/05/30 01:23:44;;;;;;;13.63;2.53;;;9.70;99.90;;;;;;5067390;28;20553;-81
2022/05/30 01:26:28;;;;;;;12.60;3.10;;;9.70;99.90;;;;;;5069216;28;20095;-81
2022/05/30 01:29:07;;;;;;;12.73;2.40;;;9.80;99.90;;;;;;5068160;28;20017;-81
2022/05/30 01:31:36;;;;;;;11.20;2.60;;;9.80;99.90;;;;;;5067346;28;20021;-81
2022/05/30 01:34:10;;;;;;;11.82;2.88;;;9.80;99.90;;;;;;5076987;28;20017;-78
2022/05/30 01:36:36;;;;;;;6.88;2.42;;;9.70;99.90;;;;;;5048892;28;20444;-79
2022/05/30 01:39:03;;;;;;;11.70;2.45;;;9.70;99.90;;;;;;5048675;28;20079;-79
2022/05/30 01:41:28;;;;;;;14.48;3.05;;;9.70;99.90;;;;;;5046834;28;20044;-79
2022/05/30 01:43:57;;;;;;;15.85;2.88;;;9.60;99.90;;;;;;5047369;28;20017;-79
2022/05/30 01:46:26;;;;;;;10.60;3.17;;;9.60;99.90;;;;;;5047524;28;20462;-79
2022/05/30 01:48:52;;;;;;;12.30;2.75;;;9.60;99.90;;;;;;5049007;28;20024;-79
2022/05/30 01:51:20;;;;;;;17.00;3.45;;;9.50;99.90;;;;;;5046970;28;20086;-79
2022/05/30 01:53:46;;;;;;;11.20;2.70;;;9.50;99.90;;;;;;5048283;28;20025;-80
2022/05/30 01:56:14;;;;;;;21.75;3.60;;;9.50;99.90;;;;;;5049028;28;20470;-80
2022/05/30 01:58:41;;;;;;;8.63;2.70;;;9.40;99.90;;;;;;5047328;28;20025;-81
2022/05/30 02:01:21;;;;;;;13.90;3.47;;;9.40;99.90;;;;;;5048285;28;20033;-81
2022/05/30 02:03:49;;;;;;;17.45;3.25;;;9.40;99.90;;;;;;5074621;28;20108;-81
2022/05/30 02:06:15;;;;;;;14.20;4.57;;;9.40;99.90;;;;;;5086086;28;20055;-79
2022/05/30 02:08:42;;;;;;;9.32;2.53;;;9.40;99.90;;;;;;5087374;28;20208;-80
2022/05/30 02:11:10;;;;;;;20.42;2.83;;;9.30;99.90;;;;;;5086971;28;20031;-81
2022/05/30 02:13:37;;;;;;;18.15;3.30;;;9.40;99.90;;;;;;5088816;28;20491;-80
2022/05/30 02:18:49;;;;;;;13.30;3.58;;;9.50;99.90;;;;;;5088823;28;20043;-80
2022/05/30 02:21:14;;;;;;;12.27;2.92;;;9.40;99.90;;;;;;5088103;28;20028;-81
2022/05/30 02:23:40;;;;;;;17.30;2.92;;;9.40;99.90;;;;;;5087347;28;20524;-81
2022/05/30 02:26:09;;;;;;;24.98;3.90;;;9.40;99.90;;;;;;5088751;28;20146;-80
2022/05/30 02:28:38;;;;;;;17.08;3.47;;;9.40;99.90;;;;;;5087598;28;20036;-80
2022/05/30 02:31:04;;;;;;;17.48;3.10;;;9.40;99.90;;;;;;5086599;28;20059;-80
2022/05/30 02:39:05;;;;;;;8.90;2.78;;;9.40;99.90;;;;;;5092669;28;20092;-80
2022/05/30 02:41:31;;;;;;;14.40;3.10;;;9.40;99.90;;;;;;5090494;28;20020;-80
2022/05/30 02:43:57;;;;;;;6.22;2.88;;;9.40;99.90;;;;;;5091116;28;20027;-80
2022/05/30 02:46:26;;;;;;;10.75;2.78;;;9.40;99.90;;;;;;5091101;28;20078;-80
2022/05/30 02:48:52;;;;;;;13.73;3.50;;;9.40;99.90;;;;;;5084362;28;20028;-80
2022/05/30 02:51:18;;;;;;;11.65;3.35;;;9.40;99.90;;;;;;5079428;28;20025;-80
2022/05/30 02:53:44;;;;;;;10.85;3.03;;;9.40;99.90;;;;;;5090819;28;20020;-80
2022/05/30 02:56:12;;;;;;;11.77;2.90;;;9.50;99.90;;;;;;5091652;28;20028;-80
2022/05/30 02:58:38;;;;;;;14.90;3.20;;;9.50;99.90;;;;;;5090558;28;20026;-79
2022/05/30 03:01:04;;;;;;;11.10;3.28;;;9.40;99.90;;;;;;5089839;28;20111;-80
2022/05/30 03:03:31;;;;;;;18.45;3.47;;;9.40;99.90;;;;;;5091560;28;20020;-80
2022/05/30 03:05:56;;;;;;;13.13;2.83;;;9.40;99.90;;;;;;5091590;28;20020;-81
2022/05/30 03:08:22;;;;;;;15.38;3.20;;;9.40;99.90;;;;;;5091614;28;20038;-81
2022/05/30 03:10:48;;;;;;;13.70;4.03;;;9.40;99.90;;;;;;5090999;28;20478;-81
2022/05/30 03:13:17;;;;;;;13.35;3.15;;;9.40;99.90;;;;;;5090394;28;20049;-81
2022/05/30 03:15:45;;;;;;;10.23;3.08;;;9.30;99.90;;;;;;5091694;28;20028;-81
2022/05/30 03:18:11;;;;;;;11.15;3.10;;;9.30;99.90;;;;;;5089920;28;20126;-81
2022/05/30 03:20:37;;;;;;;10.23;2.83;;;9.30;99.90;;;;;;5081976;28;20027;-81
2022/05/30 03:23:06;;;;;;;11.82;3.42;;;9.40;99.90;;;;;;5085908;28;20028;-81
2022/05/30 03:25:35;;;;;;;13.73;3.63;;;9.40;99.90;;;;;;5090476;28;20028;-81
2022/05/30 03:28:01;;;;;;;15.50;2.83;;;9.30;99.90;;;;;;5090888;28;20027;-81
2022/05/30 03:30:27;;;;;;;12.48;3.08;;;9.30;99.90;;;;;;5087281;28;20381;-81
2022/05/30 03:32:54;;;;;;;9.63;2.40;;;9.30;99.90;;;;;;5085302;28;20028;-81
2022/05/30 03:35:20;;;;;;;9.50;3.05;;;9.30;99.90;;;;;;5091023;28;20385;-81
2022/05/30 03:37:46;;;;;;;20.15;3.45;;;9.30;99.90;;;;;;5090335;28;20024;-81
2022/05/30 03:40:20;;;;;;;11.82;2.97;;;9.30;99.90;;;;;;5091427;28;20020;-79
2022/05/30 03:42:46;;;;;;;14.93;2.90;;;9.30;99.90;;;;;;5089918;28;20405;-79
2022/05/30 03:45:13;;;;;;;18.98;4.10;;;9.30;99.90;;;;;;5088977;28;20027;-81
2022/05/30 03:47:44;;;;;;;12.43;3.22;;;9.30;99.90;;;;;;5090957;28;20028;-81
2022/05/30 03:50:19;;;;;;;14.10;3.70;;;9.40;99.90;;;;;;5090159;28;20270;-81
2022/05/30 03:52:48;;;;;;;15.45;4.03;;;9.30;99.90;;;;;;5089887;28;20028;-80
2022/05/30 03:55:19;;;;;;;14.40;3.90;;;9.30;99.90;;;;;;5090599;28;20058;-80
2022/05/30 03:57:46;;;;;;;10.27;3.60;;;9.30;99.90;;;;;;5092631;28;20028;-80
2022/05/30 04:00:19;;;;;;;15.88;4.35;;;9.20;99.90;;;;;;5089247;28;20020;-80
2022/05/30 04:02:48;;;;;;;14.27;3.90;;;9.10;99.90;;;;;;5084056;28;20020;-81
2022/05/30 04:05:16;;;;;;;17.92;4.32;;;9.10;99.90;;;;;;5092023;28;20119;-81
2022/05/30 04:07:48;;;;;;;9.50;3.10;;;9.20;99.90;;;;;;5097292;28;20051;-82
2022/05/30 04:10:17;;;;;;;14.50;3.78;;;9.10;99.90;;;;;;5099340;28;20032;-83
2022/05/30 04:16:51;;;;;;;;;;;;;;;;;;;;;
2022/05/30 04:19:16;;;;;;;12.98;3.22;;;9.30;99.90;;;;;;5096240;28;20107;-83
2022/05/30 04:21:45;;;;;;;15.75;3.90;;;9.40;99.90;;;;;;5104852;28;20058;-83
2022/05/30 04:24:11;;;;;;;13.95;4.35;;;9.40;99.90;;;;;;5097367;28;20020;-84
2022/05/30 04:26:37;;;;;;;15.13;3.83;;;9.40;99.90;;;;;;5094951;28;20031;-84
2022/05/30 04:29:04;;;;;;;15.68;3.60;;;9.40;99.90;;;;;;5097877;28;20062;-85
2022/05/30 04:31:30;;;;;;;22.30;4.75;;;9.50;99.90;;;;;;5095152;28;20035;-85
2022/05/30 04:33:55;;;;;;;12.77;3.95;;;9.50;99.90;;;;;;5078551;28;20028;-85
2022/05/30 04:36:23;;;;;;;14.77;3.80;;;9.50;99.90;;;;;;5079348;28;20382;-86
2022/05/30 04:38:51;;;;;;;11.07;4.03;;;9.50;99.90;;;;;;5078816;28;20478;-86
2022/05/30 04:41:18;;;;;;;13.25;4.32;;;9.50;99.90;;;;;;5078764;28;20017;-85
2022/05/30 04:44:09;;;;;;;16.40;3.90;;;9.50;99.90;;;;;;5071148;28;20021;-82
2022/05/30 04:47:10;;;;;;;12.68;3.38;;;9.60;99.90;;;;;;5059375;28;20025;-82
2022/05/30 04:52:33;;;;;;;13.60;3.78;;;9.60;99.90;;;;;;5014920;28;20550;-81
2022/05/30 04:55:30;;;;;;;15.30;3.42;;;9.60;99.90;;;;;;5048322;28;20390;-82
2022/05/30 04:57:55;;;;;;;10.80;3.28;;;9.60;99.90;;;;;;4981548;28;20042;-81
2022/05/30 05:00:25;;;;;;;13.85;3.70;;;9.60;99.90;;;;;;5052117;28;20048;-81
2022/05/30 05:02:56;;;;;;;13.00;3.10;;;9.60;99.90;;;;;;5059129;28;20013;-83
2022/05/30 05:05:23;;;;;;;14.23;3.33;;;9.60;99.90;;;;;;5056501;28;20029;-81
2022/05/30 05:07:53;;;;;;;13.25;3.35;;;9.70;99.90;;;;;;5062501;28;20035;-81
2022/05/30 05:10:53;;;;;;;10.88;3.08;;;9.70;99.90;;;;;;5059359;28;20251;-81
2022/05/30 05:13:19;;;;;;;13.83;3.80;;;9.70;99.90;;;;;;5029575;28;20021;-81
2022/05/30 05:15:44;;;;;;;16.83;3.13;;;9.80;99.90;;;;;;5049084;28;20823;-81
2022/05/30 05:18:11;;;;;;;12.55;3.17;;;9.80;99.90;;;;;;5049589;28;20474;-81
2022/05/30 05:20:38;;;;;;;11.82;3.33;;;9.80;99.90;;;;;;5050985;28;20027;-78
2022/05/30 05:23:04;;;;;;;13.75;3.33;;;9.80;99.90;;;;;;5053208;28;20074;-78
2022/05/30 05:25:36;;;;;;;19.33;3.80;;;9.80;99.90;;;;;;5052017;28;20021;-79
2022/05/30 05:28:01;;;;;;;13.18;2.97;;;9.80;99.90;;;;;;5053662;28;20341;-82
2022/05/30 05:30:30;;;;;;;12.38;3.55;;;9.90;99.90;;;;;;5072014;28;20051;-81
2022/05/30 05:32:56;;;;;;;12.15;3.30;;;9.90;99.90;;;;;;5040806;28;20033;-81
2022/05/30 05:35:24;;;;;;;12.52;3.63;;;10.00;99.90;;;;;;5074437;28;20492;-82
2022/05/30 05:37:51;;;;;;;16.23;3.75;;;10.00;99.90;;;;;;5074733;28;20039;-81
2022/05/30 05:40:18;;;;;;;23.40;3.85;;;10.10;99.90;;;;;;5073604;28;20032;-80
2022/05/30 05:42:43;;;;;;;13.52;3.13;;;10.10;99.90;;;;;;5073275;28;20480;-80
2022/05/30 05:45:10;;;;;;;13.32;4.05;;;10.00;99.90;;;;;;5075554;28;20055;-80
2022/05/30 05:47:36;;;;;;;15.20;3.55;;;10.10;99.90;;;;;;5071967;28;20107;-88
2022/05/30 05:50:03;;;;;;;12.90;3.15;;;10.10;99.90;;;;;;5091751;28;20021;-88
2022/05/30 05:52:32;;;;;;;6.80;2.42;;;10.20;99.90;;;;;;5093675;28;20031;-87
2022/05/30 05:55:01;;;;;;;21.48;3.20;;;10.20;99.90;;;;;;5073501;28;20020;-88
2022/05/30 05:57:30;;;;;;;15.20;3.80;;;10.20;99.90;;;;;;5093429;28;20024;-87
2022/05/30 05:59:59;;;;;;;17.00;3.38;;;10.10;99.90;;;;;;5078844;28;20476;-88
2022/05/30 06:02:27;;;;;;;20.00;3.92;;;10.20;99.90;;;;;;5080675;28;20029;-88
2022/05/30 06:04:56;;;;;;;10.63;4.00;;;10.20;99.90;;;;;;5080901;28;20281;-88
2022/05/30 06:07:21;;;;;;;13.35;3.33;;;10.30;99.90;;;;;;5086229;28;20020;-88
2022/05/30 06:09:49;;;;;;;13.52;3.72;;;10.40;99.90;;;;;;5080819;28;20027;-88
2022/05/30 06:12:18;;;;;;;9.65;2.92;;;10.40;99.90;;;;;;5081968;28;20412;-86
2022/05/30 06:14:44;;;;;;;12.60;3.05;;;10.40;99.90;;;;;;5083511;28;20031;-88
2022/05/30 06:17:10;;;;;;;16.95;3.33;;;10.50;99.90;;;;;;5083318;28;20024;-88
2022/05/30 06:19:38;;;;;;;17.10;4.10;;;10.50;99.90;;;;;;5081315;28;20031;-88
2022/05/30 06:22:05;;;;;;;19.13;4.20;;;10.40;99.90;;;;;;5088052;28;20237;-87
2022/05/30 06:24:31;;;;;;;10.30;2.90;;;10.40;99.90;;;;;;5067532;28;20605;-87
2022/05/30 06:26:57;;;;;;;14.35;4.07;;;10.50;99.90;;;;;;5070379;28;20057;-87
2022/05/30 06:29:23;;;;;;;13.27;2.78;;;10.50;99.90;;;;;;5085831;28;20021;-88
2022/05/30 06:31:51;;;;;;;17.25;3.53;;;10.60;99.90;;;;;;5082245;28;20082;-88
2022/05/30 06:34:17;;;;;;;9.90;3.05;;;10.60;99.90;;;;;;5071125;28;20049;-87
2022/05/30 06:36:44;;;;;;;16.38;3.55;;;10.70;99.90;;;;;;5061971;28;20025;-88
2022/05/30 06:41:57;;;;;;;6.90;2.65;;;10.70;99.90;;;;;;5010132;28;20053;-87
2022/05/30 06:44:26;;;;;;;11.13;2.50;;;10.70;99.90;;;;;;5061155;28;20020;-86
2022/05/30 06:46:54;;;;;;;12.32;2.80;;;10.90;99.90;;;;;;5094640;28;20028;-90
2022/05/30 06:50:23;;;;;;;10.05;2.83;;;10.90;99.90;;;;;;5086305;28;20509;-91
2022/05/30 06:52:49;;;;;;;8.18;2.67;;;11.10;99.90;;;;;;5006285;28;20196;-85
2022/05/30 06:55:15;;;;;;;14.85;3.00;;;11.30;99.90;;;;;;5003409;28;20120;-86
2022/05/30 07:00:35;;;;;;;14.07;3.33;;;11.40;99.90;;;;;;5081302;28;20024;-86
2022/05/30 07:03:06;;;;;;;15.07;3.58;;;11.60;99.90;;;;;;5076191;28;20048;-86
2022/05/30 07:05:31;;;;;;;6.93;3.25;;;11.60;99.90;;;;;;5081442;28;20052;-86
2022/05/30 07:07:59;;;;;;;16.45;2.72;;;11.60;99.90;;;;;;5076302;28;20362;-86
2022/05/30 07:10:30;;;;;;;8.40;3.10;;;11.70;99.90;;;;;;5084125;28;20024;-86
2022/05/30 07:12:57;;;;;;;10.35;3.03;;;11.70;99.90;;;;;;5078724;28;20040;-86
2022/05/30 07:15:23;;;;;;;8.05;2.13;;;11.70;99.90;;;;;;5073595;28;20536;-86
2022/05/30 07:17:52;;;;;;;11.27;2.97;;;11.70;99.90;;;;;;5072195;28;20040;-86
2022/05/30 07:20:18;;;;;;;9.80;3.67;;;11.80;99.90;;;;;;5074924;28;20437;-86
2022/05/30 07:22:44;;;;;;;11.43;2.72;;;11.80;99.90;;;;;;5089218;28;20032;-86
2022/05/30 07:25:13;;;;;;;17.40;3.83;;;11.90;99.90;;;;;;5071307;28;20020;-86
2022/05/30 07:27:39;;;;;;;11.60;3.47;;;11.90;99.90;;;;;;5065157;28;20027;-86
2022/05/30 07:30:08;;;;;;;9.02;2.60;;;12.00;99.90;;;;;;5073044;28;20037;-86
2022/05/30 07:32:34;;;;;;;12.98;2.90;;;11.90;99.90;;;;;;5069072;28;20028;-86
2022/05/30 07:35:03;;;;;;;20.08;2.67;;;11.90;99.90;;;;;;5067887;28;20037;-86
2022/05/30 07:37:29;;;;;;;15.35;2.75;;;11.90;99.90;;;;;;5067301;28;20025;-86
2022/05/30 07:39:55;;;;;;;9.18;2.92;;;12.00;99.90;;;;;;5067986;28;20041;-87
2022/05/30 07:42:24;;;;;;;7.75;2.35;;;11.80;99.90;;;;;;5076079;28;20017;-86
2022/05/30 07:44:53;;;;;;;9.13;3.88;;;11.70;99.90;;;;;;5065082;28;20036;-86
2022/05/30 07:47:21;;;;;;;13.23;2.70;;;11.80;99.90;;;;;;5091330;28;20024;-86
2022/05/30 07:49:47;;;;;;;8.85;2.80;;;11.80;99.90;;;;;;5080453;28;20028;-85
2022/05/30 07:52:15;;;;;;;8.07;2.92;;;11.90;99.90;;;;;;5062991;28;20036;-85
2022/05/30 07:54:41;;;;;;;11.45;3.13;;;11.90;99.90;;;;;;5062233;28;20021;-86
2022/05/30 07:57:50;;;;;;;5.35;2.17;;;12.00;99.90;;;;;;5062428;28;20085;-86
2022/05/30 08:00:18;;;;;;;9.15;2.95;;;12.10;99.90;;;;;;5072333;28;20025;-86
2022/05/30 08:02:44;;;;;;;18.33;2.85;;;12.10;99.90;;;;;;5082442;28;20017;-87
2022/05/30 08:05:11;;;;;;;10.40;2.45;;;12.10;99.90;;;;;;5081677;28;20028;-86
2022/05/30 08:07:37;;;;;;;12.27;2.58;;;12.10;99.90;;;;;;5081942;28;20029;-87
2022/05/30 08:10:07;;;;;;;9.27;2.75;;;12.00;99.90;;;;;;5080699;28;20051;-86
2022/05/30 08:12:33;;;;;;;6.97;2.10;;;12.10;99.90;;;;;;5079378;28;20076;-86
2022/05/30 08:14:59;;;;;;;15.38;3.08;;;12.10;99.90;;;;;;5069924;28;20040;-86
2022/05/30 08:17:25;;;;;;;17.20;3.40;;;12.10;99.90;;;;;;5100428;28;20023;-88
2022/05/30 08:19:54;;;;;;;8.77;2.63;;;12.10;99.90;;;;;;5087951;28;20031;-87
2022/05/30 08:22:22;;;;;;;12.45;2.60;;;12.10;99.90;;;;;;5069949;28;20479;-85
2022/05/30 08:24:48;;;;;;;14.70;3.67;;;12.10;99.90;;;;;;5062796;28;20062;-86
2022/05/30 08:27:15;;;;;;;14.23;2.92;;;12.10;99.90;;;;;;5079732;28;20029;-86
2022/05/30 08:29:44;;;;;;;10.25;2.42;;;12.10;99.90;;;;;;5082042;28;20549;-87
2022/05/30 08:32:11;;;;;;;5.22;2.13;;;12.00;99.90;;;;;;5080765;28;20029;-86
2022/05/30 08:34:39;;;;;;;8.13;2.97;;;12.10;99.90;;;;;;5080059;28;20012;-85
2022/05/30 08:37:06;;;;;;;9.48;2.25;;;12.10;99.90;;;;;;5078485;28;20119;-85
2022/05/30 08:42:27;;;;;;;13.52;2.83;;;12.40;99.90;;;;;;5077999;28;20039;-87
2022/05/30 08:44:56;;;;;;;9.00;2.35;;;12.60;99.90;;;;;;5096326;28;20390;-87
2022/05/30 08:47:54;;;;;;;8.10;2.25;;;12.60;99.90;;;;;;5097616;28;20085;-85
2022/05/30 08:50:30;;;;;;;8.23;1.80;;;12.70;99.90;;;;;;5083614;28;20029;-86
2022/05/30 08:53:17;;;;;;;11.38;1.83;;;12.80;99.90;;;;;;5059666;28;20051;-86
2022/05/30 08:56:22;;;;;;;6.03;1.77;;;12.90;99.90;;;;;;5064972;28;20028;-86
2022/05/30 08:59:18;;;;;;;11.40;2.33;;;13.00;99.90;;;;;;5080346;28;20130;-86
2022/05/30 09:01:57;;;;;;;4.93;1.77;;;13.10;99.90;;;;;;5086569;28;20104;-86
2022/05/30 09:04:34;;;;;;;7.30;2.30;;;13.00;99.90;;;;;;5088397;28;20032;-86
2022/05/30 09:07:05;;;;;;;7.00;2.10;;;13.20;99.90;;;;;;5088925;28;20051;-84
2022/05/30 09:09:58;;;;;;;10.93;2.38;;;13.30;99.90;;;;;;5079258;28;20050;-86
2022/05/30 09:12:48;;;;;;;3.80;1.50;;;13.50;99.90;;;;;;5089961;28;20028;-86
2022/05/30 09:15:34;;;;;;;3.58;1.45;;;13.60;99.90;;;;;;5073677;28;20036;-85
2022/05/30 09:18:07;;;;;;;9.55;1.75;;;13.60;99.90;;;;;;5059187;28;20021;-86
2022/05/30 09:20:34;;;;;;;7.57;1.77;;;13.70;99.90;;;;;;5067617;28;20089;-85
2022/05/30 09:23:04;;;;;;;6.00;2.63;;;13.60;99.90;;;;;;5074758;28;20031;-86
2022/05/30 09:26:00;;;;;;;6.88;1.70;;;13.60;99.90;;;;;;5071661;28;20444;-86
2022/05/30 09:28:34;;;;;;;7.63;2.13;;;13.60;99.90;;;;;;5067524;28;20558;-86
2022/05/30 09:31:15;;;;;;;3.63;1.83;;;13.60;99.90;;;;;;5080204;28;20052;-85
2022/05/30 09:33:52;;;;;;;4.05;2.10;;;13.60;99.90;;;;;;5073062;28;20024;-86
2022/05/30 09:36:25;;;;;;;12.15;1.95;;;13.60;99.90;;;;;;5073766;28;20025;-87
2022/05/30 09:39:03;;;;;;;11.50;1.80;;;13.50;99.90;;;;;;5076407;28;20029;-85
2022/05/30 09:41:43;;;;;;;7.55;2.03;;;13.60;99.90;;;;;;5079508;28;20092;-86
2022/05/30 09:44:39;;;;;;;6.70;2.25;;;13.60;99.90;;;;;;5070406;28;20071;-86
2022/05/30 09:47:13;;;;;;;12.02;2.38;;;13.60;99.90;;;;;;5067943;28;20087;-85
2022/05/30 09:49:45;;;;;;;7.43;1.90;;;13.70;99.90;;;;;;5072012;28;20397;-86
2022/05/30 09:52:49;;;;;;;8.00;1.58;;;13.80;99.90;;;;;;5076770;28;20043;-85
2022/05/30 09:55:40;;;;;;;7.57;1.63;;;13.80;99.90;;;;;;5070306;28;20078;-86
2022/05/30 09:58:06;;;;;;;9.13;1.67;;;13.90;99.90;;;;;;5071791;28;20043;-85
2022/05/30 10:00:46;;;;;;;6.85;2.03;;;13.80;99.90;;;;;;5075042;28;20021;-85
2022/05/30 10:03:27;;;;;;;7.22;2.72;;;13.90;99.90;;;;;;5076284;28;20025;-87
2022/05/30 10:06:14;;;;;;;7.55;2.15;;;14.00;99.90;;;;;;5076396;28;20020;-85
2022/05/30 10:08:46;;;;;;;5.60;1.55;;;14.20;99.90;;;;;;5067006;28;20032;-86
2022/05/30 10:11:42;;;;;;;7.05;1.80;;;14.10;99.50;;;;;;5070306;28;20541;-85
2022/05/30 10:14:43;;;;;;;6.43;1.92;;;13.90;99.90;;;;;;5074858;28;20442;-86
2022/05/30 10:17:26;;;;;;;4.18;1.70;;;13.90;99.90;;;;;;5080357;28;20079;-86
2022/05/30 10:19:52;;;;;;;10.10;1.90;;;14.10;99.90;;;;;;5076137;28;20051;-86
2022/05/30 10:28:49;;;;;;;3.40;1.80;;;14.40;99.90;;;;;;5086587;28;20045;-86
2022/05/30 10:31:40;;;;;;;4.38;1.88;;;14.20;98.60;;;;;;5070591;28;20036;-87
2022/05/30 10:34:27;;;;;;;;;;;14.30;98.90;;;;;;5069155;28;20098;-87
2022/05/30 10:37:05;;;;;;;7.90;1.90;;;14.20;98.90;;;;;;5078675;28;19930;-87
2022/05/30 10:40:18;;;;;;;6.40;1.92;;;14.00;98.10;;;;;;5088717;28;20110;-87
2022/05/30 10:42:54;;;;;;;4.60;1.85;;;14.10;99.60;;;;;;5075356;28;20020;-86
2022/05/30 10:45:49;;;;;;;7.55;2.15;;;14.30;99.00;;;;;;5075325;28;20020;-87
2022/05/30 10:48:26;;;;;;;6.50;1.67;;;14.30;97.90;;;;;;5076910;28;20040;-87
2022/05/30 10:50:58;;;;;;;7.38;2.17;;;14.10;98.90;;;;;;5067373;28;20029;-87
2022/05/30 10:53:43;;;;;;;6.82;2.53;;;14.10;98.90;;;;;;5081431;28;20107;-86
2022/05/30 10:56:21;;;;;;;3.28;1.55;;;13.80;98.00;;;;;;5086284;28;20182;-86
2022/05/30 10:59:13;;;;;;;6.65;2.22;;;14.10;99.50;;;;;;5101289;28;20362;-87
2022/05/30 11:01:49;;;;;;;10.57;3.00;;;14.20;98.80;;;;;;5103188;28;20521;-86
2022/05/30 11:04:45;;;;;;;8.70;3.72;;;14.30;99.60;;;;;;5096585;28;20032;-86
2022/05/30 11:07:37;;;;;;;7.43;3.00;;;14.20;98.50;;;;;;5103072;28;20278;-86
2022/05/30 11:10:06;;;;;;;7.13;2.05;;;14.20;97.70;;;;;;5102611;28;20198;-86
2022/05/30 11:12:46;;;;;;;3.20;1.88;;;14.30;98.40;;;;;;5100293;28;20473;-86
2022/05/30 11:15:26;;;;;;;7.30;2.13;;;14.40;98.10;;;;;;5084174;28;20093;-86
2022/05/30 11:18:30;;;;;;;6.38;2.30;;;14.60;98.00;;;;;;5099073;28;20123;-86
2022/05/30 11:21:47;;;;;;;5.07;1.85;;;14.70;97.60;;;;;;5061994;28;20025;-85
2022/05/30 11:24:17;;;;;;;7.00;2.35;;;14.90;96.40;;;;;;5062710;28;20119;-86
2022/05/30 11:27:18;;;;;;;6.05;2.20;;;14.90;97.50;;;;;;5074090;28;20027;-86
2022/05/30 11:29:46;;;;;;;2.85;1.70;;;14.90;96.60;;;;;;5075789;28;20029;-86
2022/05/30 11:32:41;;;;;;;6.72;2.30;;;14.90;96.80;;;;;;5081770;28;20050;-86
2022/05/30 11:35:35;;;;;;;6.72;1.83;;;15.30;98.30;;;;;;5084556;28;20021;-87
2022/05/30 11:38:24;;;;;;;4.78;2.28;;;15.60;96.90;;;;;;5081295;28;20107;-88
2022/05/30 11:41:28;;;;;;;7.22;2.15;;;15.60;95.00;;;;;;5090868;28;20032;-87
2022/05/30 11:44:19;;;;;;;6.72;2.38;;;15.90;95.10;;;;;;5083960;28;20024;-87
2022/05/30 11:46:47;;;;;;;;;;;16.10;94.00;;;;;;5075425;28;20024;-87
2022/05/30 11:49:34;;;;;;;6.75;2.92;;;16.00;93.20;;;;;;5079864;28;19908;-88
2022/05/30 11:52:10;;;;;;;6.60;2.20;;;16.00;93.30;;;;;;5077021;28;20021;-87
2022/05/30 11:54:51;;;;;;;5.63;2.20;;;16.20;93.50;;;;;;5052950;28;20036;-88
2022/05/30 11:57:32;;;;;;;7.20;1.98;;;16.10;93.20;;;;;;5081314;28;20166;-87
2022/05/30 12:00:34;;;;;;;4.28;1.90;;;16.40;93.30;;;;;;5088659;28;20548;-87
2022/05/30 12:03:22;;;;;;;4.53;1.90;;;16.50;91.80;;;;;;5075414;28;20551;-87
2022/05/30 12:06:18;;;;;;;4.50;1.77;;;16.40;92.10;;;;;;5069869;28;20445;-87
2022/05/30 12:08:52;;;;;;;3.92;1.70;;;16.30;91.90;;;;;;5070689;28;20055;-87
2022/05/30 12:11:42;;;;;;;1.67;1.20;;;16.40;92.50;;;;;;5061250;28;20075;-80
2022/05/30 12:14:47;;;;;;;4.95;1.50;;;16.20;90.80;;;;;;5074776;28;20028;-80
2022/05/30 12:23:49;;;;;;;6.10;1.98;;;16.00;91.70;;;;;;5069152;28;20048;-80
2022/05/30 12:26:38;;;;;;;6.28;2.17;;;15.90;92.40;;;;;;5070218;28;20466;-80
2022/05/30 12:29:03;;;;;;;5.32;1.98;;;16.30;92.80;;;;;;5068292;28;20032;-80
2022/05/30 12:31:34;;;;;;;5.47;1.27;;;16.80;92.30;;;;;;5070696;28;20022;-80
2022/05/30 12:33:59;;;;;;;5.75;1.70;;;17.00;91.40;;;;;;5081222;28;20104;-79
2022/05/30 12:36:25;;;;;;;7.50;1.67;;;17.40;92.90;;;;;;5070509;28;20103;-77
2022/05/30 12:38:51;;;;;;;7.03;1.75;;;17.80;91.90;;;;;;5093650;28;20036;-79
2022/05/30 12:41:20;;;;;;;3.53;1.63;;;18.00;90.10;;;;;;5092115;28;20473;-79
2022/05/30 12:43:46;;;;;;;3.15;1.77;;;17.70;90.80;;;;;;5082251;28;20561;-79
2022/05/30 12:46:19;;;;;;;6.97;1.85;;;17.40;90.80;;;;;;5074955;28;20025;-79
2022/05/30 12:48:44;;;;;;;6.10;1.77;;;17.00;91.80;;;;;;5073450;28;20029;-86
2022/05/30 12:51:30;;;;;;;8.18;2.15;;;16.50;91.60;;;;;;5071986;28;20551;-86
2022/05/30 12:53:58;;;;;;;5.30;1.70;;;16.20;92.10;;;;;;5084809;28;20040;-86
2022/05/30 12:56:40;;;;;;;7.55;1.80;;;15.60;93.30;;;;;;5081614;28;20057;-87
2022/05/30 12:59:11;;;;;;;8.27;2.03;;;15.20;95.00;;;;;;5080168;28;20037;-86
2022/05/30 13:01:43;;;;;;;6.07;2.25;;;14.90;96.30;;;;;;5080404;28;20024;-86
2022/05/30 13:05:09;;;;;;;7.50;1.85;;;14.60;96.40;;;;;;5088592;28;20028;-86
2022/05/30 13:07:17;;;;;;;7.30;1.90;;;14.30;96.60;;;;;;5096060;28;20039;-86
2022/05/30 13:09:47;;;;;;;4.63;1.88;;;14.20;97.00;;;;;;5102458;28;20035;-87
2022/05/30 13:12:20;;;;;;;10.07;2.30;;;14.10;97.70;;;;;;5101608;28;20027;-87
2022/05/30 13:15:05;;;;;;;8.18;1.77;;;14.10;97.30;;;;;;5085839;28;20016;-84
2022/05/30 13:17:55;;;;;;;4.13;2.10;;;13.90;97.30;;;;;;5081210;28;20025;-87
2022/05/30 13:20:27;;;;;;;4.53;1.65;;;14.00;98.30;;;;;;5082107;28;20025;-86
2022/05/30 13:23:00;;;;;;;5.03;1.40;;;14.20;97.50;;;;;;5080838;28;20551;-87
2022/05/30 13:25:48;;;;;;;6.07;1.75;;;14.50;97.60;;;;;;5080701;28;20025;-86
2022/05/30 13:28:26;;;;;;;7.03;1.50;;;14.80;96.00;;;;;;5082599;28;20058;-86
2022/05/30 13:30:56;;;;;;;8.38;1.92;;;15.00;96.70;;;;;;5081020;28;20092;-86
2022/05/30 13:33:37;;;;;;;8.07;1.52;;;15.00;94.80;;;;;;5081761;28;20025;-85
2022/05/30 13:36:05;;;;;;;4.28;1.67;;;14.90;94.40;;;;;;5081568;28;20063;-86
2022/05/30 13:38:40;;;;;;;4.07;1.55;;;14.80;94.60;;;;;;5079286;28;20024;-85
2022/05/30 13:41:28;;;;;;;6.25;2.15;;;14.70;95.50;;;;;;5080441;28;20051;-85
2022/05/30 13:43:58;;;;;;;5.57;1.58;;;14.40;94.90;;;;;;5081064;28;20031;-86
2022/05/30 13:46:29;;;;;;;10.90;2.13;;;14.20;95.80;;;;;;5081003;28;20092;-87
2022/05/30 13:48:55;;;;;;;5.53;1.80;;;14.00;95.10;;;;;;5080454;28;20035;-86
2022/05/30 13:51:37;;;;;;;3.45;1.27;;;14.00;96.80;;;;;;5081077;28;20027;-87
2022/05/30 13:54:05;;;;;;;5.68;1.77;;;13.90;95.60;;;;;;5074486;28;20027;-87
2022/05/30 13:56:40;;;;;;;8.27;3.25;;;13.80;95.60;;;;;;5073279;28;20029;-87
2022/05/30 13:59:27;;;;;;;12.45;2.30;;;13.80;96.20;;;;;;5072308;28;20024;-87